Time,TemperatureF,DewpointF,PressureIn,WindDirection,WindDirectionDegrees,WindSpeedMPH,WindSpeedGustMPH,Humidity,HourlyPrecipIn,Conditions,Clouds,dailyrainin,SoftwareType,DateUTC
2013-07-24 00:01:00,80.0,76.5,29.87,South,175,0.0,0.0,89,0.00,CLR,,0.00,WeatherDisplay:10.37,2013-07-24 04:01:00,
2013-07-24 00:06:00,80.3,76.4,29.87,SW,217,0.0,0.0,88,0.00,CLR,,0.00,WeatherDisplay:10.37,2013-07-24 04:06:00,
2013-07-24 00:11:00,80.1,76.6,29.86,SW,217,0.0,0.0,89,0.00,CLR,,0.00,WeatherDisplay:10.37,2013-07-24 04:11:00,
2013-07-24 00:16:00,79.7,77.2,29.86,SW,217,0.0,0.0,92,0.00,CLR,,0.00,WeatherDisplay:10.37,2013-07-24 04:16:00,
2013-07-24 00:21:00,79.9,76.7,29.85,SW,217,0.0,0.0,90,0.00,CLR,,0.00,WeatherDisplay:10.37,2013-07-24 04:21:00,
2013-07-24 00:26:00,79.7,76.8,29.85,SW,217,0.0,0.0,91,0.00,CLR,,0.00,WeatherDisplay:10.37,2013-07-24 04:26:00,
2013-07-24 00:31:00,79.4,76.5,29.85,SW,217,0.0,0.0,91,0.00,CLR,,0.00,WeatherDisplay:10.37,2013-07-24 04:31:00,
2013-07-24 00:36:00,79.2,77.3,29.85,SW,217,0.0,0.0,94,0.00,CLR,,0.00,WeatherDisplay:10.37,2013-07-24 04:36:00,
2013-07-24 00:41:00,79.2,77.0,29.85,SW,217,0.0,0.0,93,0.00,CLR,,0.00,WeatherDisplay:10.37,2013-07-24 04:41:00,
2013-07-24 00:46:00,79.1,77.2,29.85,SW,217,0.0,0.0,94,0.00,CLR,,0.00,WeatherDisplay:10.37,2013-07-24 04:46:00,
2013-07-24 00:51:00,78.7,77.1,29.85,SW,217,0.0,0.0,95,0.00,CLR,,0.00,WeatherDisplay:10.37,2013-07-24 04:51:00,
2013-07-24 00:56:00,78.3,77.1,29.85,SW,217,0.0,0.0,96,0.00,CLR,,0.00,WeatherDisplay:10.37,2013-07-24 04:56:00,
2013-07-24 01:01:00,78.2,77.0,29.85,SW,217,0.0,0.0,96,0.00,CLR,,0.00,WeatherDisplay:10.37,2013-07-24 05:01:00,
2013-07-24 01:06:00,78.0,77.1,29.84,SW,217,0.0,0.0,97,0.00,CLR,,0.00,WeatherDisplay:10.37,2013-07-24 05:06:00,
2013-07-24 01:11:00,77.5,76.9,29.84,SW,217,0.0,0.0,98,0.00,CLR,,0.00,WeatherDisplay:10.37,2013-07-24 05:11:00,
2013-07-24 01:16:00,77.8,77.2,29.83,SW,217,0.0,0.0,98,0.00,CLR,,0.00,WeatherDisplay:10.37,2013-07-24 05:16:00,
2013-07-24 01:21:00,77.5,76.9,29.83,SW,217,0.0,0.0,98,0.00,CLR,,0.00,WeatherDisplay:10.37,2013-07-24 05:21:00,
2013-07-24 01:26:00,77.2,76.6,29.83,SW,217,0.0,0.0,98,0.00,CLR,,0.00,WeatherDisplay:10.37,2013-07-24 05:26:00,
2013-07-24 01:31:00,77.3,76.7,29.83,SW,217,0.0,0.0,98,0.00,CLR,,0.00,WeatherDisplay:10.37,2013-07-24 05:31:00,
2013-07-24 01:36:00,77.3,76.7,29.83,SW,217,0.0,0.0,98,0.00,CLR,,0.00,WeatherDisplay:10.37,2013-07-24 05:36:00,
2013-07-24 01:41:00,76.9,76.6,29.83,SW,217,0.0,0.0,99,0.00,CLR,,0.00,WeatherDisplay:10.37,2013-07-24 05:41:00,
2013-07-24 01:46:00,76.9,76.6,29.83,SW,217,0.0,0.0,99,0.00,CLR,,0.00,WeatherDisplay:10.37,2013-07-24 05:46:00,
2013-07-24 01:51:00,76.9,76.6,29.83,SW,217,0.0,0.0,99,0.00,CLR,,0.00,WeatherDisplay:10.37,2013-07-24 05:51:00,
2013-07-24 01:56:00,76.7,76.7,29.83,SW,217,0.0,0.0,100,0.00,CLR,,0.00,WeatherDisplay:10.37,2013-07-24 05:56:00,
2013-07-24 02:01:00,76.7,76.7,29.83,SW,217,0.0,0.0,100,0.00,CLR,,0.00,WeatherDisplay:10.37,2013-07-24 06:01:00,
2013-07-24 02:06:00,76.9,76.6,29.83,SW,217,0.0,0.0,99,0.00,CLR,,0.00,WeatherDisplay:10.37,2013-07-24 06:06:00,
2013-07-24 02:11:00,76.6,76.6,29.83,SW,217,0.0,0.0,100,0.00,CLR,,0.00,WeatherDisplay:10.37,2013-07-24 06:11:00,
2013-07-24 02:16:00,76.3,76.3,29.83,SW,217,0.0,0.0,100,0.00,CLR,,0.00,WeatherDisplay:10.37,2013-07-24 06:16:00,
2013-07-24 02:21:00,76.5,76.5,29.83,SW,217,0.0,0.0,100,0.00,CLR,,0.00,WeatherDisplay:10.37,2013-07-24 06:21:00,
2013-07-24 02:27:00,76.5,76.5,29.83,SW,217,0.0,0.0,100,0.00,CLR,,0.00,WeatherDisplay:10.37,2013-07-24 06:27:00,
2013-07-24 02:32:00,76.0,76.0,29.83,SW,217,0.0,0.0,100,0.00,CLR,,0.00,WeatherDisplay:10.37,2013-07-24 06:32:00,
2013-07-24 02:37:00,75.9,75.9,29.83,SW,217,0.0,0.0,100,0.00,CLR,,0.00,WeatherDisplay:10.37,2013-07-24 06:37:00,
2013-07-24 02:42:00,76.2,76.2,29.82,SW,217,0.0,0.0,100,0.00,CLR,,0.00,WeatherDisplay:10.37,2013-07-24 06:42:00,
2013-07-24 02:47:00,76.0,76.0,29.82,SW,217,0.0,0.0,100,0.00,CLR,,0.00,WeatherDisplay:10.37,2013-07-24 06:47:00,
2013-07-24 02:52:00,75.8,75.8,29.83,SW,217,0.0,0.0,100,0.00,CLR,,0.00,WeatherDisplay:10.37,2013-07-24 06:52:00,
2013-07-24 02:57:00,76.0,76.0,29.82,SW,217,0.0,0.0,100,0.00,CLR,,0.00,WeatherDisplay:10.37,2013-07-24 06:57:00,
2013-07-24 03:02:00,75.9,75.9,29.82,SW,217,0.0,0.0,100,0.00,CLR,,0.00,WeatherDisplay:10.37,2013-07-24 07:02:00,
2013-07-24 03:07:00,75.4,75.4,29.82,SW,217,0.0,0.0,100,0.00,CLR,,0.00,WeatherDisplay:10.37,2013-07-24 07:07:00,
2013-07-24 03:12:00,75.3,75.3,29.81,SW,217,0.0,0.0,100,0.00,CLR,,0.00,WeatherDisplay:10.37,2013-07-24 07:12:00,
2013-07-24 03:17:00,75.7,75.7,29.81,SW,217,0.0,0.0,100,0.00,CLR,,0.00,WeatherDisplay:10.37,2013-07-24 07:17:00,
2013-07-24 03:22:00,75.7,75.7,29.81,SW,217,0.0,0.0,100,0.00,CLR,,0.00,WeatherDisplay:10.37,2013-07-24 07:22:00,
2013-07-24 03:27:00,75.3,75.3,29.80,SW,217,0.0,0.0,100,0.00,CLR,,0.00,WeatherDisplay:10.37,2013-07-24 07:27:00,
2013-07-24 03:32:00,75.0,75.0,29.80,SW,217,0.0,0.0,100,0.00,CLR,,0.00,WeatherDisplay:10.37,2013-07-24 07:32:00,
2013-07-24 03:37:00,75.2,75.2,29.80,SW,217,0.0,0.0,100,0.00,CLR,,0.00,WeatherDisplay:10.37,2013-07-24 07:37:00,
2013-07-24 03:42:00,75.1,75.1,29.80,SW,217,0.0,0.0,100,0.00,CLR,,0.00,WeatherDisplay:10.37,2013-07-24 07:42:00,
2013-07-24 03:47:00,74.8,74.8,29.80,SW,217,0.0,0.0,100,0.00,CLR,,0.00,WeatherDisplay:10.37,2013-07-24 07:47:00,
2013-07-24 03:52:00,74.6,74.6,29.80,SW,217,0.0,0.0,100,0.00,CLR,,0.00,WeatherDisplay:10.37,2013-07-24 07:52:00,
2013-07-24 03:57:00,74.6,74.6,29.80,SW,217,0.0,0.0,100,0.00,CLR,,0.00,WeatherDisplay:10.37,2013-07-24 07:57:00,
2013-07-24 04:02:00,74.8,74.8,29.80,SW,217,0.0,0.0,100,0.00,CLR,,0.00,WeatherDisplay:10.37,2013-07-24 08:02:00,
2013-07-24 04:07:00,74.7,74.7,29.80,SW,217,0.0,0.0,100,0.00,CLR,,0.00,WeatherDisplay:10.37,2013-07-24 08:07:00,
2013-07-24 04:12:00,74.4,74.4,29.80,SW,217,0.0,0.0,100,0.00,CLR,,0.00,WeatherDisplay:10.37,2013-07-24 08:12:00,
2013-07-24 04:17:00,74.2,74.2,29.80,SW,217,0.0,0.0,100,0.00,CLR,,0.00,WeatherDisplay:10.37,2013-07-24 08:17:00,
2013-07-24 04:22:00,74.3,74.3,29.80,SW,217,0.0,0.0,100,0.00,CLR,,0.00,WeatherDisplay:10.37,2013-07-24 08:22:00,
2013-07-24 04:27:00,74.5,74.5,29.80,SW,217,0.0,0.0,100,0.00,CLR,,0.00,WeatherDisplay:10.37,2013-07-24 08:27:00,
2013-07-24 04:32:00,74.1,74.1,29.80,SW,217,0.0,0.0,100,0.00,CLR,,0.00,WeatherDisplay:10.37,2013-07-24 08:32:00,
2013-07-24 04:37:00,73.8,73.8,29.80,SW,217,0.0,0.0,100,0.00,CLR,,0.00,WeatherDisplay:10.37,2013-07-24 08:37:00,
2013-07-24 04:42:00,73.7,73.7,29.80,SW,217,0.0,0.0,100,0.00,CLR,,0.00,WeatherDisplay:10.37,2013-07-24 08:42:00,
2013-07-24 04:47:00,73.6,73.6,29.80,SW,217,0.0,0.0,100,0.00,CLR,,0.00,WeatherDisplay:10.37,2013-07-24 08:47:00,
2013-07-24 04:52:00,73.9,73.9,29.80,SW,217,0.0,0.0,100,0.00,CLR,,0.00,WeatherDisplay:10.37,2013-07-24 08:52:00,
2013-07-24 04:57:00,73.8,73.8,29.80,SW,217,0.0,0.0,100,0.00,CLR,,0.00,WeatherDisplay:10.37,2013-07-24 08:57:00,
2013-07-24 05:02:00,73.6,73.6,29.80,SW,217,0.0,0.0,100,0.00,CLR,,0.00,WeatherDisplay:10.37,2013-07-24 09:02:00,
2013-07-24 05:07:00,73.4,73.4,29.80,SW,217,0.0,0.0,100,0.00,CLR,,0.00,WeatherDisplay:10.37,2013-07-24 09:07:00,
2013-07-24 05:12:00,73.2,73.2,29.80,SW,217,0.0,0.0,100,0.00,CLR,,0.00,WeatherDisplay:10.37,2013-07-24 09:12:00,
2013-07-24 05:17:00,73.3,73.3,29.80,SW,217,0.0,0.0,100,0.00,CLR,,0.00,WeatherDisplay:10.37,2013-07-24 09:17:00,
2013-07-24 05:23:00,73.5,73.5,29.80,SW,217,0.0,0.0,100,0.00,CLR,,0.00,WeatherDisplay:10.37,2013-07-24 09:23:00,
2013-07-24 05:28:00,73.3,73.3,29.80,SW,217,0.0,0.0,100,0.00,CLR,,0.00,WeatherDisplay:10.37,2013-07-24 09:28:00,
2013-07-24 05:33:00,73.0,73.0,29.80,SW,217,0.0,0.0,100,0.00,CLR,,0.00,WeatherDisplay:10.37,2013-07-24 09:33:00,
2013-07-24 05:38:00,72.8,72.8,29.80,SW,217,0.0,0.0,100,0.00,CLR,,0.00,WeatherDisplay:10.37,2013-07-24 09:38:00,
2013-07-24 05:43:00,72.5,72.5,29.80,SW,217,0.0,0.0,100,0.00,CLR,,0.00,WeatherDisplay:10.37,2013-07-24 09:43:00,
2013-07-24 05:48:00,72.9,72.9,29.81,SW,217,0.0,0.0,100,0.00,CLR,,0.00,WeatherDisplay:10.37,2013-07-24 09:48:00,
2013-07-24 05:53:00,73.0,73.0,29.81,SW,217,0.0,0.0,100,0.00,CLR,,0.00,WeatherDisplay:10.37,2013-07-24 09:53:00,
2013-07-24 05:58:00,72.8,72.8,29.81,SW,217,0.0,0.0,100,0.00,CLR,,0.00,WeatherDisplay:10.37,2013-07-24 09:58:00,
2013-07-24 06:03:00,72.5,72.5,29.82,SW,217,0.0,0.0,100,0.00,CLR,,0.00,WeatherDisplay:10.37,2013-07-24 10:03:00,
2013-07-24 06:08:00,72.3,72.3,29.82,SW,217,0.0,0.0,100,0.00,CLR,,0.00,WeatherDisplay:10.37,2013-07-24 10:08:00,
2013-07-24 06:13:00,72.2,72.2,29.82,SW,217,0.0,0.0,100,0.00,CLR,,0.00,WeatherDisplay:10.37,2013-07-24 10:13:00,
2013-07-24 06:18:00,71.9,71.9,29.82,SW,217,0.0,0.0,100,0.00,CLR,,0.00,WeatherDisplay:10.37,2013-07-24 10:18:00,
2013-07-24 06:23:00,71.8,71.8,29.82,SW,217,0.0,0.0,100,0.00,CLR,,0.00,WeatherDisplay:10.37,2013-07-24 10:23:00,
2013-07-24 06:28:00,71.7,71.7,29.82,SW,217,0.0,0.0,100,0.00,CLR,,0.00,WeatherDisplay:10.37,2013-07-24 10:28:00,
2013-07-24 06:33:00,71.6,71.6,29.83,SW,217,0.0,0.0,100,0.00,CLR,,0.00,WeatherDisplay:10.37,2013-07-24 10:33:00,
2013-07-24 06:38:00,71.5,71.5,29.82,SW,217,0.0,0.0,100,0.00,CLR,,0.00,WeatherDisplay:10.37,2013-07-24 10:38:00,
2013-07-24 06:43:00,71.5,71.5,29.82,SW,217,0.0,0.0,100,0.00,CLR,,0.00,WeatherDisplay:10.37,2013-07-24 10:43:00,
2013-07-24 06:48:00,71.5,71.5,29.82,SW,217,0.0,0.0,100,0.00,CLR,,0.00,WeatherDisplay:10.37,2013-07-24 10:48:00,
2013-07-24 06:53:00,71.3,71.3,29.83,SW,217,0.0,0.0,100,0.00,CLR,,0.00,WeatherDisplay:10.37,2013-07-24 10:53:00,
2013-07-24 06:58:00,71.1,71.1,29.83,SW,217,0.0,0.0,100,0.00,CLR,,0.00,WeatherDisplay:10.37,2013-07-24 10:58:00,
2013-07-24 07:03:00,71.2,71.2,29.83,SW,217,0.0,0.0,100,0.00,CLR,,0.00,WeatherDisplay:10.37,2013-07-24 11:03:00,
2013-07-24 07:08:00,71.1,71.1,29.83,SW,217,0.0,0.0,100,0.00,CLR,,0.00,WeatherDisplay:10.37,2013-07-24 11:08:00,
2013-07-24 07:13:00,71.0,71.0,29.83,SW,217,0.0,0.0,100,0.00,CLR,,0.00,WeatherDisplay:10.37,2013-07-24 11:13:00,
2013-07-24 07:18:00,71.2,71.2,29.83,SW,217,0.0,0.0,100,0.00,CLR,,0.00,WeatherDisplay:10.37,2013-07-24 11:18:00,
2013-07-24 07:23:00,71.3,71.3,29.84,SW,217,0.0,0.0,100,0.00,CLR,,0.00,WeatherDisplay:10.37,2013-07-24 11:23:00,
2013-07-24 07:28:00,71.4,71.4,29.83,SW,217,0.0,0.0,100,0.00,CLR,,0.00,WeatherDisplay:10.37,2013-07-24 11:28:00,
2013-07-24 07:33:00,71.5,71.5,29.84,SW,217,0.0,0.0,100,0.00,CLR,,0.00,WeatherDisplay:10.37,2013-07-24 11:33:00,
2013-07-24 07:38:00,71.5,71.5,29.84,SW,217,0.0,0.0,100,0.00,CLR,,0.00,WeatherDisplay:10.37,2013-07-24 11:38:00,
2013-07-24 07:43:00,71.5,71.5,29.85,SW,217,0.0,0.0,100,0.00,CLR,,0.00,WeatherDisplay:10.37,2013-07-24 11:43:00,
2013-07-24 07:48:00,71.6,71.6,29.85,SW,217,0.0,0.0,100,0.00,CLR,,0.00,WeatherDisplay:10.37,2013-07-24 11:48:00,
2013-07-24 07:53:00,71.7,71.7,29.85,SW,217,0.0,0.0,100,0.00,CLR,,0.00,WeatherDisplay:10.37,2013-07-24 11:53:00,
2013-07-24 07:58:00,71.9,71.9,29.85,SW,217,0.0,0.0,100,0.00,CLR,,0.00,WeatherDisplay:10.37,2013-07-24 11:58:00,
2013-07-24 08:03:00,72.3,72.3,29.85,SW,217,0.0,0.0,100,0.00,CLR,,0.00,WeatherDisplay:10.37,2013-07-24 12:03:00,
2013-07-24 08:08:00,72.5,72.5,29.85,SW,217,0.0,0.0,100,0.00,CLR,,0.00,WeatherDisplay:10.37,2013-07-24 12:08:00,
2013-07-24 08:13:00,72.8,72.8,29.85,SW,217,0.0,0.0,100,0.00,CLR,,0.00,WeatherDisplay:10.37,2013-07-24 12:13:00,
2013-07-24 08:18:00,73.1,73.1,29.85,SW,217,0.0,0.0,100,0.00,CLR,,0.00,WeatherDisplay:10.37,2013-07-24 12:18:00,
2013-07-24 08:23:00,73.3,73.3,29.85,SW,217,0.0,0.0,100,0.00,CLR,,0.00,WeatherDisplay:10.37,2013-07-24 12:23:00,
2013-07-24 08:28:00,73.7,73.7,29.85,SW,217,0.0,0.0,100,0.00,CLR,,0.00,WeatherDisplay:10.37,2013-07-24 12:28:00,
2013-07-24 08:33:00,74.0,74.0,29.85,SW,217,0.0,0.0,100,0.00,CLR,,0.00,WeatherDisplay:10.37,2013-07-24 12:33:00,
2013-07-24 08:38:00,74.3,74.3,29.85,SW,217,0.0,0.0,100,0.00,CLR,,0.00,WeatherDisplay:10.37,2013-07-24 12:38:00,
2013-07-24 08:43:00,74.9,74.9,29.85,SW,217,0.0,0.0,100,0.00,CLR,,0.00,WeatherDisplay:10.37,2013-07-24 12:43:00,
2013-07-24 08:48:00,75.2,75.2,29.85,WSW,239,1.2,0.0,100,0.00,CLR,,0.00,WeatherDisplay:10.37,2013-07-24 12:48:00,
2013-07-24 08:53:00,75.3,75.3,29.85,SSW,206,2.3,2.3,100,0.00,CLR,,0.00,WeatherDisplay:10.37,2013-07-24 12:53:00,
2013-07-24 08:58:00,75.5,75.2,29.85,SSW,206,0.0,0.0,99,0.00,CLR,,0.00,WeatherDisplay:10.37,2013-07-24 12:58:00,
2013-07-24 09:03:00,76.0,75.4,29.85,SW,223,0.0,0.0,98,0.00,CLR,,0.00,WeatherDisplay:10.37,2013-07-24 13:03:00,
2013-07-24 09:08:00,76.1,75.2,29.85,SW,223,0.0,0.0,97,0.00,CLR,,0.00,WeatherDisplay:10.37,2013-07-24 13:08:00,
2013-07-24 09:13:00,76.7,76.1,29.85,SW,223,0.0,0.0,98,0.00,CLR,,0.00,WeatherDisplay:10.37,2013-07-24 13:13:00,
2013-07-24 09:18:00,77.2,76.6,29.85,SW,223,0.0,0.0,98,0.00,CLR,,0.00,WeatherDisplay:10.37,2013-07-24 13:18:00,
2013-07-24 09:23:00,77.4,76.2,29.85,NW,322,2.6,2.6,96,0.00,CLR,,0.00,WeatherDisplay:10.37,2013-07-24 13:23:00,
2013-07-24 09:28:00,77.9,76.4,29.85,WNW,282,2.3,2.3,95,0.00,CLR,,0.00,WeatherDisplay:10.37,2013-07-24 13:28:00,
2013-07-24 09:33:00,78.1,76.2,29.86,NW,320,0.0,0.0,94,0.00,CLR,,0.00,WeatherDisplay:10.37,2013-07-24 13:33:00,
2013-07-24 09:38:00,78.5,76.6,29.86,WSW,244,1.6,1.6,94,0.00,CLR,,0.00,WeatherDisplay:10.37,2013-07-24 13:38:00,
2013-07-24 09:43:00,78.9,76.7,29.85,WSW,253,3.5,3.5,93,0.00,CLR,,0.00,WeatherDisplay:10.37,2013-07-24 13:43:00,
2013-07-24 09:48:00,79.0,76.1,29.85,WNW,296,3.5,3.5,91,0.00,CLR,,0.00,WeatherDisplay:10.37,2013-07-24 13:48:00,
2013-07-24 09:53:00,79.2,76.3,29.85,West,281,4.6,4.6,91,0.00,CLR,,0.00,WeatherDisplay:10.37,2013-07-24 13:53:00,
2013-07-24 09:59:00,79.4,76.2,29.85,WNW,301,2.7,2.7,90,0.00,CLR,,0.00,WeatherDisplay:10.37,2013-07-24 13:59:00,
2013-07-24 10:04:00,79.8,77.3,29.85,North,1,0.0,0.0,92,0.00,CLR,,0.00,WeatherDisplay:10.37,2013-07-24 14:04:00,
2013-07-24 10:09:00,80.1,77.9,29.85,North,6,2.3,2.3,93,0.00,CLR,,0.00,WeatherDisplay:10.37,2013-07-24 14:09:00,
2013-07-24 10:14:00,81.3,77.1,29.85,NW,322,3.5,0.0,87,0.00,CLR,,0.00,WeatherDisplay:10.37,2013-07-24 14:14:00,
2013-07-24 10:19:00,82.2,75.8,29.85,WSW,257,2.9,2.9,81,0.00,CLR,,0.00,WeatherDisplay:10.37,2013-07-24 14:19:00,
2013-07-24 10:24:00,82.4,76.7,29.85,WNW,287,0.0,0.0,83,0.00,CLR,,0.00,WeatherDisplay:10.37,2013-07-24 14:24:00,
2013-07-24 10:29:00,82.2,75.8,29.85,WNW,298,3.5,0.0,81,0.00,CLR,,0.00,WeatherDisplay:10.37,2013-07-24 14:29:00,
2013-07-24 10:34:00,82.0,76.0,29.85,NNW,347,3.5,3.5,82,0.00,CLR,,0.00,WeatherDisplay:10.37,2013-07-24 14:34:00,
2013-07-24 10:39:00,81.9,75.1,29.85,North,352,1.2,1.3,80,0.00,CLR,,0.00,WeatherDisplay:10.37,2013-07-24 14:39:00,
2013-07-24 10:44:00,83.0,75.0,29.85,WNW,294,2.4,2.4,77,0.00,CLR,,0.00,WeatherDisplay:10.37,2013-07-24 14:44:00,
2013-07-24 10:49:00,83.9,74.3,29.85,NNW,342,3.5,3.5,73,0.00,CLR,,0.00,WeatherDisplay:10.37,2013-07-24 14:49:00,
2013-07-24 10:54:00,83.8,75.0,29.85,WSW,250,5.8,5.8,75,0.00,CLR,,0.00,WeatherDisplay:10.37,2013-07-24 14:54:00,
2013-07-24 10:59:00,83.4,74.6,29.85,NW,311,5.8,5.8,75,0.00,CLR,,0.00,WeatherDisplay:10.37,2013-07-24 14:59:00,
2013-07-24 11:04:00,83.4,74.6,29.85,NW,305,5.0,5.0,75,0.00,CLR,,0.00,WeatherDisplay:10.37,2013-07-24 15:04:00,
2013-07-24 11:09:00,84.2,72.5,29.85,West,278,3.5,3.5,68,0.00,CLR,,0.00,WeatherDisplay:10.37,2013-07-24 15:09:00,
2013-07-24 11:14:00,85.6,71.1,29.85,WNW,288,0.0,0.0,62,0.00,CLR,,0.00,WeatherDisplay:10.37,2013-07-24 15:14:00,
2013-07-24 11:19:00,85.5,71.5,29.85,SW,215,2.3,2.3,63,0.00,CLR,,0.00,WeatherDisplay:10.37,2013-07-24 15:19:00,
2013-07-24 11:24:00,85.2,71.6,29.85,WNW,289,2.3,2.3,64,0.00,CLR,,0.00,WeatherDisplay:10.37,2013-07-24 15:24:00,
2013-07-24 11:29:00,85.2,71.6,29.85,NW,315,3.5,3.5,64,0.00,CLR,,0.00,WeatherDisplay:10.37,2013-07-24 15:29:00,
2013-07-24 11:34:00,86.9,70.3,29.85,NW,320,3.5,3.5,58,0.00,CLR,,0.00,WeatherDisplay:10.37,2013-07-24 15:34:00,
2013-07-24 11:39:00,86.9,69.8,29.85,WSW,257,3.5,3.5,57,0.00,CLR,,0.00,WeatherDisplay:10.37,2013-07-24 15:39:00,
2013-07-24 11:44:00,86.5,71.0,29.85,SW,226,1.2,1.2,60,0.00,CLR,,0.00,WeatherDisplay:10.37,2013-07-24 15:44:00,
2013-07-24 11:49:00,86.6,72.0,29.85,West,263,0.0,0.0,62,0.00,CLR,,0.00,WeatherDisplay:10.37,2013-07-24 15:49:00,
2013-07-24 11:54:00,87.5,70.4,29.85,NNW,332,3.5,3.5,57,0.00,CLR,,0.00,WeatherDisplay:10.37,2013-07-24 15:54:00,
2013-07-24 11:59:00,87.6,70.5,29.84,NW,311,0.0,0.0,57,0.00,CLR,,0.00,WeatherDisplay:10.37,2013-07-24 15:59:00,
2013-07-24 12:04:00,87.2,70.6,29.85,NNW,332,1.2,1.2,58,0.00,CLR,,0.00,WeatherDisplay:10.37,2013-07-24 16:04:00,
2013-07-24 12:09:00,87.2,70.6,29.85,NNW,332,0.0,0.0,58,0.00,CLR,,0.00,WeatherDisplay:10.37,2013-07-24 16:09:00,
2013-07-24 12:14:00,88.4,70.2,29.85,SW,230,2.3,2.3,55,0.00,CLR,,0.00,WeatherDisplay:10.37,2013-07-24 16:14:00,
2013-07-24 12:19:00,89.1,70.3,29.85,WSW,240,0.0,0.0,54,0.00,CLR,,0.00,WeatherDisplay:10.37,2013-07-24 16:19:00,
2013-07-24 12:24:00,88.8,69.5,29.85,WSW,240,0.0,0.0,53,0.00,CLR,,0.00,WeatherDisplay:10.37,2013-07-24 16:24:00,
2013-07-24 12:29:00,89.4,70.0,29.85,WSW,243,1.1,1.1,53,0.00,CLR,,0.00,WeatherDisplay:10.37,2013-07-24 16:29:00,
2013-07-24 12:34:00,90.4,69.2,29.85,SW,226,0.0,0.0,50,0.00,CLR,,0.00,WeatherDisplay:10.37,2013-07-24 16:34:00,
2013-07-24 12:39:00,90.4,69.2,29.85,NW,304,2.3,2.3,50,0.00,CLR,,0.00,WeatherDisplay:10.37,2013-07-24 16:39:00,
2013-07-24 12:44:00,89.7,69.2,29.85,NNW,330,0.0,0.0,51,0.00,CLR,,0.00,WeatherDisplay:10.37,2013-07-24 16:44:00,
2013-07-24 12:49:00,89.9,68.8,29.85,SSW,209,1.2,0.0,50,0.00,CLR,,0.00,WeatherDisplay:10.37,2013-07-24 16:49:00,
2013-07-24 12:54:00,90.9,69.7,29.85,SSW,209,0.0,0.0,50,0.00,CLR,,0.00,WeatherDisplay:10.37,2013-07-24 16:54:00,
2013-07-24 12:59:00,90.6,69.4,29.85,SSW,199,4.6,4.6,50,0.00,CLR,,0.00,WeatherDisplay:10.37,2013-07-24 16:59:00,
2013-07-24 13:04:00,90.0,69.4,29.85,SSW,199,0.0,0.0,51,0.00,CLR,,0.00,WeatherDisplay:10.37,2013-07-24 17:04:00,
2013-07-24 13:09:00,90.8,69.6,29.85,West,264,0.0,0.0,50,0.00,CLR,,0.00,WeatherDisplay:10.37,2013-07-24 17:09:00,
2013-07-24 13:14:00,91.7,70.4,29.85,West,264,0.0,0.0,50,0.00,CLR,,0.00,WeatherDisplay:10.37,2013-07-24 17:14:00,
2013-07-24 13:19:00,92.3,69.8,29.85,West,261,0.0,0.0,48,0.00,CLR,,0.00,WeatherDisplay:10.37,2013-07-24 17:19:00,
2013-07-24 13:24:00,91.7,69.8,29.85,WSW,240,0.0,0.0,49,0.00,CLR,,0.00,WeatherDisplay:10.37,2013-07-24 17:24:00,
2013-07-24 13:29:00,91.2,69.4,29.85,SSW,200,0.0,0.0,49,0.00,CLR,,0.00,WeatherDisplay:10.37,2013-07-24 17:29:00,
2013-07-24 13:34:00,91.7,70.4,29.85,South,188,0.0,0.0,50,0.00,CLR,,0.00,WeatherDisplay:10.37,2013-07-24 17:34:00,
2013-07-24 13:39:00,91.9,70.0,29.84,South,188,0.0,0.0,49,0.00,CLR,,0.00,WeatherDisplay:10.37,2013-07-24 17:39:00,
2013-07-24 13:44:00,91.9,70.0,29.84,South,188,0.0,0.0,49,0.00,CLR,,0.00,WeatherDisplay:10.37,2013-07-24 17:44:00,
2013-07-24 13:49:00,91.7,71.0,29.84,South,188,0.0,0.0,51,0.00,CLR,,0.00,WeatherDisplay:10.37,2013-07-24 17:49:00,
2013-07-24 13:54:00,91.3,70.1,29.83,South,188,0.0,0.0,50,0.00,CLR,,0.00,WeatherDisplay:10.37,2013-07-24 17:54:00,
2013-07-24 13:59:00,90.6,68.2,29.83,South,188,0.0,0.0,48,0.00,CLR,,0.00,WeatherDisplay:10.37,2013-07-24 17:59:00,
2013-07-24 14:04:00,90.2,69.0,29.83,South,188,0.0,0.0,50,0.00,CLR,,0.00,WeatherDisplay:10.37,2013-07-24 18:04:00,
2013-07-24 14:09:00,89.8,68.7,29.83,South,188,0.0,0.0,50,0.00,CLR,,0.00,WeatherDisplay:10.37,2013-07-24 18:09:00,
2013-07-24 14:14:00,90.0,71.1,29.83,South,188,0.0,0.0,54,0.00,CLR,,0.00,WeatherDisplay:10.37,2013-07-24 18:14:00,
2013-07-24 14:19:00,90.4,70.9,29.83,South,188,0.0,0.0,53,0.00,CLR,,0.00,WeatherDisplay:10.37,2013-07-24 18:19:00,
2013-07-24 14:24:00,91.0,70.4,29.83,South,188,0.0,0.0,51,0.00,CLR,,0.00,WeatherDisplay:10.37,2013-07-24 18:24:00,
2013-07-24 14:29:00,91.3,71.2,29.83,South,188,0.0,0.0,52,0.00,CLR,,0.00,WeatherDisplay:10.37,2013-07-24 18:29:00,
2013-07-24 14:35:00,91.5,69.6,29.82,South,188,0.0,0.0,49,0.00,CLR,,0.00,WeatherDisplay:10.37,2013-07-24 18:35:00,
2013-07-24 14:40:00,90.9,69.1,29.83,South,188,0.0,0.0,49,0.00,CLR,,0.00,WeatherDisplay:10.37,2013-07-24 18:40:00,
2013-07-24 14:45:00,90.8,70.2,29.83,South,188,0.0,0.0,51,0.00,CLR,,0.00,WeatherDisplay:10.37,2013-07-24 18:45:00,
2013-07-24 14:50:00,91.9,70.6,29.83,South,188,0.0,0.0,50,0.00,CLR,,0.00,WeatherDisplay:10.37,2013-07-24 18:50:00,
2013-07-24 14:55:00,92.3,69.8,29.83,SSW,212,1.2,0.0,48,0.00,CLR,,0.00,WeatherDisplay:10.37,2013-07-24 18:55:00,
2013-07-24 15:00:00,91.9,70.6,29.83,SSW,212,0.0,0.0,50,0.00,CLR,,0.00,WeatherDisplay:10.37,2013-07-24 19:00:00,
2013-07-24 15:05:00,90.8,70.7,29.83,SSW,212,0.0,0.0,52,0.00,CLR,,0.00,WeatherDisplay:10.37,2013-07-24 19:05:00,
2013-07-24 15:10:00,89.5,71.2,29.83,SSW,212,0.0,0.0,55,0.00,CLR,,0.00,WeatherDisplay:10.37,2013-07-24 19:10:00,
2013-07-24 15:15:00,88.6,72.4,29.82,SSW,212,0.0,0.0,59,0.00,CLR,,0.00,WeatherDisplay:10.37,2013-07-24 19:15:00,
2013-07-24 15:20:00,87.8,73.6,29.82,SSW,212,0.0,0.0,63,0.00,CLR,,0.00,WeatherDisplay:10.37,2013-07-24 19:20:00,
2013-07-24 15:25:00,87.2,75.3,29.82,SSW,212,0.0,0.0,68,0.00,CLR,,0.00,WeatherDisplay:10.37,2013-07-24 19:25:00,
2013-07-24 15:30:00,87.7,75.4,29.82,SSW,212,0.0,0.0,67,0.00,CLR,,0.00,WeatherDisplay:10.37,2013-07-24 19:30:00,
2013-07-24 15:35:00,88.4,75.1,29.82,SSW,212,0.0,0.0,65,0.00,CLR,,0.00,WeatherDisplay:10.37,2013-07-24 19:35:00,
2013-07-24 15:40:00,89.0,73.8,29.82,SSW,212,0.0,0.0,61,0.00,CLR,,0.00,WeatherDisplay:10.37,2013-07-24 19:40:00,
2013-07-24 15:45:00,89.3,73.6,29.82,SSW,212,0.0,0.0,60,0.00,CLR,,0.00,WeatherDisplay:10.37,2013-07-24 19:45:00,
2013-07-24 15:50:00,88.9,74.2,29.82,SSW,212,0.0,0.0,62,0.00,CLR,,0.00,WeatherDisplay:10.37,2013-07-24 19:50:00,
2013-07-24 15:55:00,88.8,73.6,29.82,SSW,212,0.0,0.0,61,0.00,CLR,,0.00,WeatherDisplay:10.37,2013-07-24 19:55:00,
2013-07-24 16:00:00,88.9,74.7,29.82,SSW,212,0.0,0.0,63,0.00,CLR,,0.00,WeatherDisplay:10.37,2013-07-24 20:00:00,
2013-07-24 16:05:00,89.2,73.0,29.82,SSW,212,0.0,0.0,59,0.00,CLR,,0.00,WeatherDisplay:10.37,2013-07-24 20:05:00,
2013-07-24 16:10:00,89.7,71.9,29.82,SSW,212,0.0,0.0,56,0.00,CLR,,0.00,WeatherDisplay:10.37,2013-07-24 20:10:00,
2013-07-24 16:15:00,89.9,71.6,29.82,WSW,237,7.4,7.4,55,0.00,CLR,,0.00,WeatherDisplay:10.37,2013-07-24 20:15:00,
2013-07-24 16:20:00,89.6,71.8,29.82,SW,217,2.3,2.3,56,0.00,CLR,,0.00,WeatherDisplay:10.37,2013-07-24 20:20:00,
2013-07-24 16:25:00,89.0,72.3,29.82,SW,222,0.0,0.0,58,0.00,CLR,,0.00,WeatherDisplay:10.37,2013-07-24 20:25:00,
2013-07-24 16:30:00,88.6,72.9,29.82,West,263,3.5,3.5,60,0.00,CLR,,0.00,WeatherDisplay:10.37,2013-07-24 20:30:00,
2013-07-24 16:35:00,88.6,72.4,29.82,SW,232,3.5,3.5,59,0.00,CLR,,0.00,WeatherDisplay:10.37,2013-07-24 20:35:00,
2013-07-24 16:40:00,88.2,72.6,29.82,NNW,332,2.3,2.3,60,0.00,CLR,,0.00,WeatherDisplay:10.37,2013-07-24 20:40:00,
2013-07-24 16:45:00,87.8,72.2,29.81,NW,311,4.6,4.6,60,0.00,CLR,,0.00,WeatherDisplay:10.37,2013-07-24 20:45:00,
2013-07-24 16:50:00,87.6,72.5,29.81,NNW,335,2.0,0.0,61,0.00,CLR,,0.00,WeatherDisplay:10.37,2013-07-24 20:50:00,
2013-07-24 16:55:00,87.6,71.0,29.81,SW,229,4.6,4.6,58,0.00,CLR,,0.00,WeatherDisplay:10.37,2013-07-24 20:55:00,
2013-07-24 17:00:00,87.6,71.0,29.82,West,267,3.5,3.5,58,0.00,CLR,,0.00,WeatherDisplay:10.37,2013-07-24 21:00:00,
2013-07-24 17:05:00,87.0,69.9,29.82,West,261,3.5,3.5,57,0.00,CLR,,0.00,WeatherDisplay:10.37,2013-07-24 21:05:00,
2013-07-24 17:10:00,86.5,68.4,29.82,NNW,329,0.0,0.0,55,0.00,CLR,,0.00,WeatherDisplay:10.37,2013-07-24 21:10:00,
2013-07-24 17:15:00,86.3,69.3,29.82,WSW,241,2.3,2.3,57,0.00,CLR,,0.00,WeatherDisplay:10.37,2013-07-24 21:15:00,
2013-07-24 17:20:00,86.2,67.6,29.82,NNW,328,5.8,5.8,54,0.00,CLR,,0.00,WeatherDisplay:10.37,2013-07-24 21:20:00,
2013-07-24 17:25:00,85.8,67.2,29.82,WSW,237,0.0,0.0,54,0.00,CLR,,0.00,WeatherDisplay:10.37,2013-07-24 21:25:00,
2013-07-24 17:30:00,85.2,67.2,29.82,NW,306,3.5,3.5,55,0.00,CLR,,0.00,WeatherDisplay:10.37,2013-07-24 21:30:00,
2013-07-24 17:35:00,84.8,67.4,29.82,SSE,151,1.2,1.2,56,0.00,CLR,,0.00,WeatherDisplay:10.37,2013-07-24 21:35:00,
2013-07-24 17:40:00,85.0,67.5,29.82,WSW,239,0.0,0.0,56,0.00,CLR,,0.00,WeatherDisplay:10.37,2013-07-24 21:40:00,
2013-07-24 17:45:00,85.2,69.3,29.82,South,181,2.3,2.3,59,0.00,CLR,,0.00,WeatherDisplay:10.37,2013-07-24 21:45:00,
2013-07-24 17:50:00,85.0,71.5,29.81,South,181,0.0,0.0,64,0.00,CLR,,0.00,WeatherDisplay:10.37,2013-07-24 21:50:00,
2013-07-24 17:55:00,84.5,71.4,29.81,South,181,0.0,0.0,65,0.00,CLR,,0.00,WeatherDisplay:10.37,2013-07-24 21:55:00,
2013-07-24 18:00:00,84.4,70.4,29.82,South,181,0.0,0.0,63,0.00,CLR,,0.00,WeatherDisplay:10.37,2013-07-24 22:00:00,
2013-07-24 18:05:00,84.5,70.5,29.81,South,181,0.0,0.0,63,0.00,CLR,,0.00,WeatherDisplay:10.37,2013-07-24 22:05:00,
2013-07-24 18:10:00,84.2,70.2,29.81,South,181,0.0,0.0,63,0.00,CLR,,0.00,WeatherDisplay:10.37,2013-07-24 22:10:00,
2013-07-24 18:15:00,84.2,70.7,29.80,South,181,0.0,0.0,64,0.00,CLR,,0.00,WeatherDisplay:10.37,2013-07-24 22:15:00,
2013-07-24 18:20:00,84.0,71.4,29.80,South,181,0.0,0.0,66,0.00,CLR,,0.00,WeatherDisplay:10.37,2013-07-24 22:20:00,
2013-07-24 18:25:00,83.4,71.7,29.80,South,181,0.0,0.0,68,0.00,CLR,,0.00,WeatherDisplay:10.37,2013-07-24 22:25:00,
2013-07-24 18:30:00,83.5,70.9,29.80,South,181,0.0,0.0,66,0.00,CLR,,0.00,WeatherDisplay:10.37,2013-07-24 22:30:00,
2013-07-24 18:35:00,83.5,71.4,29.80,South,181,0.0,0.0,67,0.00,CLR,,0.00,WeatherDisplay:10.37,2013-07-24 22:35:00,
2013-07-24 18:40:00,83.3,72.5,29.81,South,181,0.0,0.0,70,0.00,CLR,,0.00,WeatherDisplay:10.37,2013-07-24 22:40:00,
2013-07-24 18:45:00,82.8,72.0,29.81,South,181,0.0,0.0,70,0.00,CLR,,0.00,WeatherDisplay:10.37,2013-07-24 22:45:00,
2013-07-24 18:50:00,83.0,71.8,29.81,South,181,0.0,0.0,69,0.00,CLR,,0.00,WeatherDisplay:10.37,2013-07-24 22:50:00,
2013-07-24 18:55:00,82.9,73.8,29.81,NW,305,0.0,0.0,74,0.00,CLR,,0.00,WeatherDisplay:10.37,2013-07-24 22:55:00,
2013-07-24 19:00:00,82.3,72.8,29.81,WSW,251,0.0,0.0,73,0.00,CLR,,0.00,WeatherDisplay:10.37,2013-07-24 23:00:00,
2013-07-24 19:05:00,82.0,75.2,29.81,WSW,251,0.0,0.0,80,0.00,CLR,,0.00,WeatherDisplay:10.37,2013-07-24 23:05:00,
2013-07-24 19:10:00,82.2,75.0,29.81,WSW,251,0.0,0.0,79,0.00,CLR,,0.00,WeatherDisplay:10.37,2013-07-24 23:10:00,
2013-07-24 19:15:00,82.0,74.1,29.81,SW,234,2.3,2.3,77,0.00,CLR,,0.00,WeatherDisplay:10.37,2013-07-24 23:15:00,
2013-07-24 19:20:00,81.4,74.3,29.82,SW,234,0.0,0.0,79,0.00,CLR,,0.00,WeatherDisplay:10.37,2013-07-24 23:20:00,
2013-07-24 19:26:00,81.4,75.7,29.82,SW,234,0.0,0.0,83,0.00,CLR,,0.00,WeatherDisplay:10.37,2013-07-24 23:26:00,
2013-07-24 19:31:00,81.6,75.9,29.82,SW,234,0.0,0.0,83,0.00,CLR,,0.00,WeatherDisplay:10.37,2013-07-24 23:31:00,
2013-07-24 19:36:00,81.3,76.0,29.82,SW,234,0.0,0.0,84,0.00,CLR,,0.00,WeatherDisplay:10.37,2013-07-24 23:36:00,
2013-07-24 19:41:00,81.0,76.8,29.82,SW,234,0.0,0.0,87,0.00,CLR,,0.00,WeatherDisplay:10.37,2013-07-24 23:41:00,
2013-07-24 19:46:00,81.0,76.4,29.82,SW,234,0.0,0.0,86,0.00,CLR,,0.00,WeatherDisplay:10.37,2013-07-24 23:46:00,
2013-07-24 19:51:00,81.5,75.8,29.82,SW,234,0.0,0.0,83,0.00,CLR,,0.00,WeatherDisplay:10.37,2013-07-24 23:51:00,
2013-07-24 19:56:00,81.4,75.7,29.83,SW,234,0.0,0.0,83,0.00,CLR,,0.00,WeatherDisplay:10.37,2013-07-24 23:56:00,
2013-07-24 20:01:00,81.2,76.3,29.83,SW,234,0.0,0.0,85,0.00,CLR,,0.00,WeatherDisplay:10.37,2013-07-25 00:01:00,
2013-07-24 20:06:00,81.1,76.5,29.83,SW,234,0.0,0.0,86,0.00,CLR,,0.00,WeatherDisplay:10.37,2013-07-25 00:06:00,
2013-07-24 20:11:00,81.5,76.2,29.83,SW,234,0.0,0.0,84,0.00,CLR,,0.00,WeatherDisplay:10.37,2013-07-25 00:11:00,
2013-07-24 20:16:00,81.4,75.7,29.83,SW,234,0.0,0.0,83,0.00,CLR,,0.00,WeatherDisplay:10.37,2013-07-25 00:16:00,
2013-07-24 20:21:00,81.0,75.7,29.84,NNW,335,3.5,0.0,84,0.00,CLR,,0.00,WeatherDisplay:10.37,2013-07-25 00:21:00,
2013-07-24 20:26:00,80.8,75.5,29.84,NNW,335,0.0,0.0,84,0.00,CLR,,0.00,WeatherDisplay:10.37,2013-07-25 00:26:00,
2013-07-24 20:31:00,80.9,74.5,29.84,NNW,335,0.0,0.0,81,0.00,CLR,,0.00,WeatherDisplay:10.37,2013-07-25 00:31:00,
2013-07-24 20:36:00,80.9,75.6,29.84,NNW,335,0.0,0.0,84,0.00,CLR,,0.00,WeatherDisplay:10.37,2013-07-25 00:36:00,
2013-07-24 20:41:00,80.5,74.1,29.84,NNW,335,0.0,0.0,81,0.00,CLR,,0.00,WeatherDisplay:10.37,2013-07-25 00:41:00,
2013-07-24 20:46:00,80.3,75.4,29.85,NNW,335,0.0,0.0,85,0.00,CLR,,0.00,WeatherDisplay:10.37,2013-07-25 00:46:00,
2013-07-24 20:52:00,80.3,74.7,29.85,NNW,335,0.0,0.0,83,0.00,CLR,,0.00,WeatherDisplay:10.37,2013-07-25 00:52:00,
2013-07-24 20:57:00,80.4,76.2,29.85,NNW,335,0.0,0.0,87,0.00,CLR,,0.00,WeatherDisplay:10.37,2013-07-25 00:57:00,
2013-07-24 21:02:00,80.0,76.5,29.85,NNW,335,0.0,0.0,89,0.00,CLR,,0.00,WeatherDisplay:10.37,2013-07-25 01:02:00,
2013-07-24 21:07:00,79.7,75.8,29.85,NNW,335,0.0,0.0,88,0.00,CLR,,0.00,WeatherDisplay:10.37,2013-07-25 01:07:00,
2013-07-24 21:12:00,79.5,75.6,29.85,NNW,335,0.0,0.0,88,0.00,CLR,,0.00,WeatherDisplay:10.37,2013-07-25 01:12:00,
2013-07-24 21:17:00,79.4,75.5,29.85,NNW,335,0.0,0.0,88,0.00,CLR,,0.00,WeatherDisplay:10.37,2013-07-25 01:17:00,
2013-07-24 21:22:00,78.9,75.7,29.85,NNW,335,0.0,0.0,90,0.00,CLR,,0.00,WeatherDisplay:10.37,2013-07-25 01:22:00,
2013-07-24 21:27:00,78.8,75.6,29.85,NNW,335,0.0,0.0,90,0.00,CLR,,0.00,WeatherDisplay:10.37,2013-07-25 01:27:00,
2013-07-24 21:32:00,78.8,75.9,29.85,NNW,335,0.0,0.0,91,0.00,CLR,,0.00,WeatherDisplay:10.37,2013-07-25 01:32:00,
2013-07-24 21:37:00,78.4,75.9,29.85,NNW,335,0.0,0.0,92,0.00,CLR,,0.00,WeatherDisplay:10.37,2013-07-25 01:37:00,
2013-07-24 21:42:00,78.1,75.6,29.85,NNW,335,0.0,0.0,92,0.00,CLR,,0.00,WeatherDisplay:10.37,2013-07-25 01:42:00,
2013-07-24 21:47:00,78.1,76.6,29.86,NNW,335,0.0,0.0,95,0.00,CLR,,0.00,WeatherDisplay:10.37,2013-07-25 01:47:00,
2013-07-24 21:52:00,78.0,76.5,29.86,NNW,335,0.0,0.0,95,0.00,CLR,,0.00,WeatherDisplay:10.37,2013-07-25 01:52:00,
2013-07-24 21:57:00,77.5,76.3,29.87,NNW,335,0.0,0.0,96,0.00,CLR,,0.00,WeatherDisplay:10.37,2013-07-25 01:57:00,
2013-07-24 22:02:00,77.7,76.2,29.86,NNW,335,0.0,0.0,95,0.00,CLR,,0.00,WeatherDisplay:10.37,2013-07-25 02:02:00,
2013-07-24 22:07:00,77.7,75.8,29.86,NNW,335,0.0,0.0,94,0.00,CLR,,0.00,WeatherDisplay:10.37,2013-07-25 02:07:00,
2013-07-24 22:12:00,77.1,75.9,29.87,NNW,335,0.0,0.0,96,0.00,CLR,,0.00,WeatherDisplay:10.37,2013-07-25 02:12:00,
2013-07-24 22:17:00,77.0,75.8,29.87,NNW,335,0.0,0.0,96,0.00,CLR,,0.00,WeatherDisplay:10.37,2013-07-25 02:17:00,
2013-07-24 22:22:00,77.1,75.6,29.87,NNW,335,0.0,0.0,95,0.00,CLR,,0.00,WeatherDisplay:10.37,2013-07-25 02:22:00,
2013-07-24 22:27:00,76.8,75.6,29.87,NNW,335,0.0,0.0,96,0.00,CLR,,0.00,WeatherDisplay:10.37,2013-07-25 02:27:00,
2013-07-24 22:32:00,76.5,75.6,29.87,NNW,335,0.0,0.0,97,0.00,CLR,,0.00,WeatherDisplay:10.37,2013-07-25 02:32:00,
2013-07-24 22:37:00,76.6,75.4,29.87,NNW,335,0.0,0.0,96,0.00,CLR,,0.00,WeatherDisplay:10.37,2013-07-25 02:37:00,
2013-07-24 22:42:00,76.7,75.5,29.87,NNW,335,0.0,0.0,96,0.00,CLR,,0.00,WeatherDisplay:10.37,2013-07-25 02:42:00,
2013-07-24 22:47:00,76.6,75.4,29.87,NNW,335,0.0,0.0,96,0.00,CLR,,0.00,WeatherDisplay:10.37,2013-07-25 02:47:00,
2013-07-24 22:53:00,76.6,75.4,29.88,NNW,335,0.0,0.0,96,0.00,CLR,,0.00,WeatherDisplay:10.37,2013-07-25 02:53:00,
2013-07-24 22:58:00,76.0,75.1,29.88,NNW,335,0.0,0.0,97,0.00,CLR,,0.00,WeatherDisplay:10.37,2013-07-25 02:58:00,
2013-07-24 23:03:00,75.8,75.2,29.88,NNW,335,0.0,0.0,98,0.00,CLR,,0.00,WeatherDisplay:10.37,2013-07-25 03:03:00,
2013-07-24 23:08:00,76.1,75.2,29.88,NNW,335,0.0,0.0,97,0.00,CLR,,0.00,WeatherDisplay:10.37,2013-07-25 03:08:00,
2013-07-24 23:13:00,76.4,75.2,29.88,NNW,335,0.0,0.0,96,0.00,CLR,,0.00,WeatherDisplay:10.37,2013-07-25 03:13:00,
2013-07-24 23:18:00,76.1,75.2,29.88,NNW,335,0.0,0.0,97,0.00,CLR,,0.00,WeatherDisplay:10.37,2013-07-25 03:18:00,
2013-07-24 23:23:00,76.0,75.1,29.88,NNW,335,0.0,0.0,97,0.00,CLR,,0.00,WeatherDisplay:10.37,2013-07-25 03:23:00,
2013-07-24 23:28:00,75.9,75.0,29.88,NNW,335,0.0,0.0,97,0.00,CLR,,0.00,WeatherDisplay:10.37,2013-07-25 03:28:00,
2013-07-24 23:33:00,75.8,74.9,29.88,NNW,335,0.0,0.0,97,0.00,CLR,,0.00,WeatherDisplay:10.37,2013-07-25 03:33:00,
2013-07-24 23:38:00,75.3,74.7,29.88,NNW,335,0.0,0.0,98,0.00,CLR,,0.00,WeatherDisplay:10.37,2013-07-25 03:38:00,
2013-07-24 23:43:00,75.2,74.6,29.88,NNW,335,0.0,0.0,98,0.00,CLR,,0.00,WeatherDisplay:10.37,2013-07-25 03:43:00,
2013-07-24 23:48:00,75.4,74.8,29.88,NNW,335,0.0,0.0,98,0.00,CLR,,0.00,WeatherDisplay:10.37,2013-07-25 03:48:00,
2013-07-24 23:54:00,75.3,74.7,29.89,NNW,335,0.0,0.0,98,0.00,CLR,,0.00,WeatherDisplay:10.37,2013-07-25 03:54:00,
2013-07-24 23:59:00,75.0,74.7,29.89,NNW,335,0.0,0.0,99,0.00,CLR,,0.00,WeatherDisplay:10.37,2013-07-25 03:59:00,